sensor_id;sensor_type;location;lat;lon;timestamp;P1;durP1;ratioP1;P2;durP2;ratioP2
13349;SDS011;6744;53.190;6.576;2022-07-23T00:00:45;2.97;;;1.70;;
13349;SDS011;6744;53.190;6.576;2022-07-23T00:03:11;2.97;;;2.00;;
13349;SDS011;6744;53.190;6.576;2022-07-23T00:05:37;3.30;;;1.97;;
13349;SDS011;6744;53.190;6.576;2022-07-23T00:08:02;1.90;;;1.73;;
13349;SDS011;6744;53.190;6.576;2022-07-23T00:10:27;2.57;;;2.00;;
13349;SDS011;6744;53.190;6.576;2022-07-23T00:12:53;1.90;;;1.70;;
13349;SDS011;6744;53.190;6.576;2022-07-23T00:15:18;3.13;;;2.00;;
13349;SDS011;6744;53.190;6.576;2022-07-23T00:17:44;2.60;;;2.30;;
13349;SDS011;6744;53.190;6.576;2022-07-23T00:20:09;2.67;;;2.10;;
13349;SDS011;6744;53.190;6.576;2022-07-23T00:22:35;2.10;;;1.90;;
13349;SDS011;6744;53.190;6.576;2022-07-23T00:25:00;2.50;;;2.00;;
13349;SDS011;6744;53.190;6.576;2022-07-23T00:27:26;3.17;;;2.30;;
13349;SDS011;6744;53.190;6.576;2022-07-23T00:29:51;2.87;;;2.20;;
13349;SDS011;6744;53.190;6.576;2022-07-23T00:32:16;2.87;;;1.77;;
13349;SDS011;6744;53.190;6.576;2022-07-23T00:34:42;3.27;;;1.80;;
13349;SDS011;6744;53.190;6.576;2022-07-23T00:37:07;3.10;;;1.80;;
13349;SDS011;6744;53.190;6.576;2022-07-23T00:39:32;2.67;;;2.10;;
13349;SDS011;6744;53.190;6.576;2022-07-23T00:41:58;3.97;;;2.50;;
13349;SDS011;6744;53.190;6.576;2022-07-23T00:44:24;4.30;;;2.30;;
13349;SDS011;6744;53.190;6.576;2022-07-23T00:46:52;3.90;;;2.10;;
13349;SDS011;6744;53.190;6.576;2022-07-23T00:49:22;2.67;;;2.13;;
13349;SDS011;6744;53.190;6.576;2022-07-23T00:51:49;2.00;;;1.90;;
13349;SDS011;6744;53.190;6.576;2022-07-23T00:54:15;1.93;;;1.70;;
13349;SDS011;6744;53.190;6.576;2022-07-23T00:56:42;2.07;;;1.87;;
13349;SDS011;6744;53.190;6.576;2022-07-23T00:59:09;3.60;;;2.17;;
13349;SDS011;6744;53.190;6.576;2022-07-23T01:01:34;1.73;;;1.63;;
13349;SDS011;6744;53.190;6.576;2022-07-23T01:04:00;2.67;;;2.23;;
13349;SDS011;6744;53.190;6.576;2022-07-23T01:06:25;2.87;;;2.00;;
13349;SDS011;6744;53.190;6.576;2022-07-23T01:08:50;2.20;;;2.00;;
13349;SDS011;6744;53.190;6.576;2022-07-23T01:11:17;2.23;;;2.03;;
13349;SDS011;6744;53.190;6.576;2022-07-23T01:13:43;2.77;;;2.03;;
13349;SDS011;6744;53.190;6.576;2022-07-23T01:16:09;2.47;;;2.27;;
13349;SDS011;6744;53.190;6.576;2022-07-23T01:18:34;3.10;;;2.30;;
13349;SDS011;6744;53.190;6.576;2022-07-23T01:20:59;2.57;;;2.30;;
13349;SDS011;6744;53.190;6.576;2022-07-23T01:23:25;2.87;;;1.97;;
13349;SDS011;6744;53.190;6.576;2022-07-23T01:25:54;3.80;;;2.80;;
13349;SDS011;6744;53.190;6.576;2022-07-23T01:28:20;2.60;;;2.40;;
13349;SDS011;6744;53.190;6.576;2022-07-23T01:30:46;2.77;;;2.33;;
13349;SDS011;6744;53.190;6.576;2022-07-23T01:33:11;3.03;;;2.47;;
13349;SDS011;6744;53.190;6.576;2022-07-23T01:35:37;2.33;;;2.10;;
13349;SDS011;6744;53.190;6.576;2022-07-23T01:38:02;2.73;;;2.13;;
13349;SDS011;6744;53.190;6.576;2022-07-23T01:40:27;2.33;;;2.13;;
13349;SDS011;6744;53.190;6.576;2022-07-23T01:42:53;2.50;;;2.30;;
13349;SDS011;6744;53.190;6.576;2022-07-23T01:45:18;2.80;;;2.60;;
13349;SDS011;6744;53.190;6.576;2022-07-23T01:47:44;2.97;;;2.40;;
13349;SDS011;6744;53.190;6.576;2022-07-23T01:50:09;3.23;;;2.70;;
13349;SDS011;6744;53.190;6.576;2022-07-23T01:52:35;2.97;;;2.33;;
13349;SDS011;6744;53.190;6.576;2022-07-23T01:55:00;3.00;;;2.70;;
13349;SDS011;6744;53.190;6.576;2022-07-23T01:57:25;2.80;;;2.60;;
13349;SDS011;6744;53.190;6.576;2022-07-23T01:59:51;2.60;;;2.40;;
13349;SDS011;6744;53.190;6.576;2022-07-23T02:02:16;3.03;;;2.70;;
13349;SDS011;6744;53.190;6.576;2022-07-23T02:04:41;3.23;;;2.50;;
13349;SDS011;6744;53.190;6.576;2022-07-23T02:07:07;3.10;;;2.80;;
13349;SDS011;6744;53.190;6.576;2022-07-23T02:09:32;2.80;;;2.60;;
13349;SDS011;6744;53.190;6.576;2022-07-23T02:11:58;3.70;;;2.70;;
13349;SDS011;6744;53.190;6.576;2022-07-23T02:14:24;2.87;;;2.60;;
13349;SDS011;6744;53.190;6.576;2022-07-23T02:16:50;3.00;;;2.73;;
13349;SDS011;6744;53.190;6.576;2022-07-23T02:19:15;3.43;;;3.07;;
13349;SDS011;6744;53.190;6.576;2022-07-23T02:21:40;3.00;;;2.73;;
13349;SDS011;6744;53.190;6.576;2022-07-23T02:24:06;4.80;;;3.10;;
13349;SDS011;6744;53.190;6.576;2022-07-23T02:26:31;3.00;;;2.80;;
13349;SDS011;6744;53.190;6.576;2022-07-23T02:28:59;3.80;;;3.40;;
13349;SDS011;6744;53.190;6.576;2022-07-23T02:31:25;4.00;;;3.60;;
13349;SDS011;6744;53.190;6.576;2022-07-23T02:33:50;5.33;;;3.80;;
13349;SDS011;6744;53.190;6.576;2022-07-23T02:36:15;3.60;;;3.30;;
13349;SDS011;6744;53.190;6.576;2022-07-23T02:38:41;3.40;;;3.10;;
13349;SDS011;6744;53.190;6.576;2022-07-23T02:41:06;3.40;;;3.10;;
13349;SDS011;6744;53.190;6.576;2022-07-23T02:43:32;3.33;;;3.00;;
13349;SDS011;6744;53.190;6.576;2022-07-23T02:45:57;4.00;;;3.60;;
13349;SDS011;6744;53.190;6.576;2022-07-23T02:48:22;3.17;;;2.87;;
13349;SDS011;6744;53.190;6.576;2022-07-23T02:50:48;3.50;;;3.20;;
13349;SDS011;6744;53.190;6.576;2022-07-23T02:53:13;4.10;;;3.80;;
13349;SDS011;6744;53.190;6.576;2022-07-23T02:55:38;4.43;;;4.03;;
13349;SDS011;6744;53.190;6.576;2022-07-23T02:58:04;4.30;;;3.27;;
13349;SDS011;6744;53.190;6.576;2022-07-23T03:00:29;4.30;;;3.83;;
13349;SDS011;6744;53.190;6.576;2022-07-23T03:02:54;3.83;;;3.43;;
13349;SDS011;6744;53.190;6.576;2022-07-23T03:05:20;4.00;;;3.70;;
13349;SDS011;6744;53.190;6.576;2022-07-23T03:07:45;4.17;;;3.77;;
13349;SDS011;6744;53.190;6.576;2022-07-23T03:10:10;4.23;;;3.80;;
13349;SDS011;6744;53.190;6.576;2022-07-23T03:12:36;4.10;;;3.70;;
13349;SDS011;6744;53.190;6.576;2022-07-23T03:15:01;4.67;;;3.67;;
13349;SDS011;6744;53.190;6.576;2022-07-23T03:17:26;4.80;;;3.80;;
13349;SDS011;6744;53.190;6.576;2022-07-23T03:19:52;4.13;;;3.73;;
13349;SDS011;6744;53.190;6.576;2022-07-23T03:22:17;3.73;;;3.37;;
13349;SDS011;6744;53.190;6.576;2022-07-23T03:24:42;4.37;;;3.90;;
13349;SDS011;6744;53.190;6.576;2022-07-23T03:27:20;3.60;;;3.30;;
13349;SDS011;6744;53.190;6.576;2022-07-23T03:29:46;3.80;;;3.40;;
13349;SDS011;6744;53.190;6.576;2022-07-23T03:32:12;3.33;;;3.07;;
13349;SDS011;6744;53.190;6.576;2022-07-23T03:34:37;3.60;;;3.30;;
13349;SDS011;6744;53.190;6.576;2022-07-23T03:37:03;3.50;;;3.20;;
13349;SDS011;6744;53.190;6.576;2022-07-23T03:39:28;4.03;;;3.17;;
13349;SDS011;6744;53.190;6.576;2022-07-23T03:41:53;4.27;;;3.87;;
13349;SDS011;6744;53.190;6.576;2022-07-23T03:44:19;3.80;;;3.50;;
13349;SDS011;6744;53.190;6.576;2022-07-23T03:46:44;4.80;;;3.77;;
13349;SDS011;6744;53.190;6.576;2022-07-23T03:49:09;4.03;;;3.63;;
13349;SDS011;6744;53.190;6.576;2022-07-23T03:51:35;4.17;;;3.63;;
13349;SDS011;6744;53.190;6.576;2022-07-23T03:54:00;4.10;;;3.37;;
13349;SDS011;6744;53.190;6.576;2022-07-23T03:56:25;4.60;;;4.17;;
13349;SDS011;6744;53.190;6.576;2022-07-23T03:58:51;4.17;;;3.77;;
13349;SDS011;6744;53.190;6.576;2022-07-23T04:01:16;4.13;;;3.63;;
13349;SDS011;6744;53.190;6.576;2022-07-23T04:03:42;4.10;;;3.70;;
13349;SDS011;6744;53.190;6.576;2022-07-23T04:06:07;4.33;;;3.90;;
13349;SDS011;6744;53.190;6.576;2022-07-23T04:08:32;4.77;;;3.87;;
13349;SDS011;6744;53.190;6.576;2022-07-23T04:10:58;4.40;;;4.00;;
13349;SDS011;6744;53.190;6.576;2022-07-23T04:13:23;4.77;;;4.37;;
13349;SDS011;6744;53.190;6.576;2022-07-23T04:15:48;4.13;;;3.60;;
13349;SDS011;6744;53.190;6.576;2022-07-23T04:18:15;4.73;;;3.43;;
13349;SDS011;6744;53.190;6.576;2022-07-23T04:20:42;3.90;;;3.50;;
13349;SDS011;6744;53.190;6.576;2022-07-23T04:23:08;3.63;;;3.33;;
13349;SDS011;6744;53.190;6.576;2022-07-23T04:25:34;5.57;;;3.63;;
13349;SDS011;6744;53.190;6.576;2022-07-23T04:28:00;4.00;;;3.20;;
13349;SDS011;6744;53.190;6.576;2022-07-23T04:30:25;3.33;;;3.03;;
13349;SDS011;6744;53.190;6.576;2022-07-23T04:32:50;3.70;;;3.00;;
13349;SDS011;6744;53.190;6.576;2022-07-23T04:35:16;4.50;;;3.23;;
13349;SDS011;6744;53.190;6.576;2022-07-23T04:37:41;3.33;;;3.03;;
13349;SDS011;6744;53.190;6.576;2022-07-23T04:40:06;4.17;;;3.07;;
13349;SDS011;6744;53.190;6.576;2022-07-23T04:42:32;3.20;;;2.90;;
13349;SDS011;6744;53.190;6.576;2022-07-23T04:44:57;3.40;;;2.70;;
13349;SDS011;6744;53.190;6.576;2022-07-23T04:47:23;2.80;;;2.60;;
13349;SDS011;6744;53.190;6.576;2022-07-23T04:49:48;2.80;;;2.60;;
13349;SDS011;6744;53.190;6.576;2022-07-23T04:52:13;2.50;;;2.30;;
13349;SDS011;6744;53.190;6.576;2022-07-23T04:54:40;4.97;;;3.27;;
13349;SDS011;6744;53.190;6.576;2022-07-23T04:57:05;2.97;;;2.63;;
13349;SDS011;6744;53.190;6.576;2022-07-23T04:59:30;3.23;;;2.70;;
13349;SDS011;6744;53.190;6.576;2022-07-23T05:01:56;3.20;;;2.57;;
13349;SDS011;6744;53.190;6.576;2022-07-23T05:04:21;2.90;;;2.50;;
13349;SDS011;6744;53.190;6.576;2022-07-23T05:06:46;2.67;;;2.40;;
13349;SDS011;6744;53.190;6.576;2022-07-23T05:09:12;3.13;;;2.60;;
13349;SDS011;6744;53.190;6.576;2022-07-23T05:11:37;3.20;;;2.60;;
13349;SDS011;6744;53.190;6.576;2022-07-23T05:14:02;2.40;;;2.20;;
13349;SDS011;6744;53.190;6.576;2022-07-23T05:16:28;3.40;;;2.47;;
13349;SDS011;6744;53.190;6.576;2022-07-23T05:18:53;2.97;;;2.40;;
13349;SDS011;6744;53.190;6.576;2022-07-23T05:21:19;3.20;;;2.40;;
13349;SDS011;6744;53.190;6.576;2022-07-23T05:23:44;2.87;;;2.20;;
13349;SDS011;6744;53.190;6.576;2022-07-23T05:26:09;2.20;;;1.90;;
13349;SDS011;6744;53.190;6.576;2022-07-23T05:28:35;2.20;;;2.00;;
13349;SDS011;6744;53.190;6.576;2022-07-23T05:31:00;2.97;;;2.20;;
13349;SDS011;6744;53.190;6.576;2022-07-23T05:33:25;2.77;;;2.00;;
13349;SDS011;6744;53.190;6.576;2022-07-23T05:35:51;3.70;;;1.90;;
13349;SDS011;6744;53.190;6.576;2022-07-23T05:38:16;2.33;;;1.90;;
13349;SDS011;6744;53.190;6.576;2022-07-23T05:40:41;3.17;;;2.00;;
13349;SDS011;6744;53.190;6.576;2022-07-23T05:43:06;2.00;;;1.80;;
13349;SDS011;6744;53.190;6.576;2022-07-23T05:45:32;1.43;;;1.30;;
13349;SDS011;6744;53.190;6.576;2022-07-23T05:47:57;2.73;;;1.80;;
13349;SDS011;6744;53.190;6.576;2022-07-23T05:50:22;4.93;;;1.70;;
13349;SDS011;6744;53.190;6.576;2022-07-23T05:52:48;2.37;;;1.70;;
13349;SDS011;6744;53.190;6.576;2022-07-23T05:55:13;3.40;;;2.10;;
13349;SDS011;6744;53.190;6.576;2022-07-23T05:57:39;1.93;;;1.60;;
13349;SDS011;6744;53.190;6.576;2022-07-23T06:00:05;2.40;;;1.60;;
13349;SDS011;6744;53.190;6.576;2022-07-23T06:02:32;1.67;;;1.30;;
13349;SDS011;6744;53.190;6.576;2022-07-23T06:04:58;1.97;;;1.50;;
13349;SDS011;6744;53.190;6.576;2022-07-23T06:07:23;1.83;;;1.47;;
13349;SDS011;6744;53.190;6.576;2022-07-23T06:09:48;2.57;;;1.60;;
13349;SDS011;6744;53.190;6.576;2022-07-23T06:12:14;2.70;;;1.50;;
13349;SDS011;6744;53.190;6.576;2022-07-23T06:14:40;2.47;;;1.70;;
13349;SDS011;6744;53.190;6.576;2022-07-23T06:17:06;1.83;;;1.43;;
13349;SDS011;6744;53.190;6.576;2022-07-23T06:19:31;2.13;;;1.37;;
13349;SDS011;6744;53.190;6.576;2022-07-23T06:21:56;2.70;;;1.53;;
13349;SDS011;6744;53.190;6.576;2022-07-23T06:24:21;2.63;;;1.40;;
13349;SDS011;6744;53.190;6.576;2022-07-23T06:26:47;2.33;;;1.30;;
13349;SDS011;6744;53.190;6.576;2022-07-23T06:29:12;2.67;;;1.40;;
13349;SDS011;6744;53.190;6.576;2022-07-23T06:31:39;2.03;;;1.50;;
13349;SDS011;6744;53.190;6.576;2022-07-23T06:34:04;2.80;;;1.57;;
13349;SDS011;6744;53.190;6.576;2022-07-23T06:36:29;3.20;;;1.40;;
13349;SDS011;6744;53.190;6.576;2022-07-23T06:38:55;2.33;;;1.50;;
13349;SDS011;6744;53.190;6.576;2022-07-23T06:41:20;1.87;;;1.30;;
13349;SDS011;6744;53.190;6.576;2022-07-23T06:43:45;1.93;;;1.57;;
13349;SDS011;6744;53.190;6.576;2022-07-23T06:46:11;3.63;;;1.80;;
13349;SDS011;6744;53.190;6.576;2022-07-23T06:48:36;2.40;;;1.60;;
13349;SDS011;6744;53.190;6.576;2022-07-23T06:51:02;2.63;;;1.70;;
13349;SDS011;6744;53.190;6.576;2022-07-23T06:53:28;4.00;;;1.87;;
13349;SDS011;6744;53.190;6.576;2022-07-23T06:55:53;2.13;;;1.60;;
13349;SDS011;6744;53.190;6.576;2022-07-23T06:58:19;1.40;;;1.30;;
13349;SDS011;6744;53.190;6.576;2022-07-23T07:00:45;4.07;;;1.63;;
13349;SDS011;6744;53.190;6.576;2022-07-23T07:03:10;1.60;;;1.43;;
13349;SDS011;6744;53.190;6.576;2022-07-23T07:05:35;1.90;;;1.30;;
13349;SDS011;6744;53.190;6.576;2022-07-23T07:08:01;1.90;;;1.37;;
13349;SDS011;6744;53.190;6.576;2022-07-23T07:10:26;2.27;;;1.23;;
13349;SDS011;6744;53.190;6.576;2022-07-23T07:12:51;2.37;;;1.40;;
13349;SDS011;6744;53.190;6.576;2022-07-23T07:15:17;2.87;;;1.10;;
13349;SDS011;6744;53.190;6.576;2022-07-23T07:17:42;0.83;;;0.80;;
13349;SDS011;6744;53.190;6.576;2022-07-23T07:20:08;1.33;;;0.83;;
13349;SDS011;6744;53.190;6.576;2022-07-23T07:22:34;1.23;;;0.70;;
13349;SDS011;6744;53.190;6.576;2022-07-23T07:25:00;1.27;;;0.60;;
13349;SDS011;6744;53.190;6.576;2022-07-23T07:27:25;1.00;;;0.50;;
13349;SDS011;6744;53.190;6.576;2022-07-23T07:29:51;0.77;;;0.40;;
13349;SDS011;6744;53.190;6.576;2022-07-23T07:32:16;1.83;;;0.53;;
13349;SDS011;6744;53.190;6.576;2022-07-23T07:34:42;1.30;;;0.63;;
13349;SDS011;6744;53.190;6.576;2022-07-23T07:37:07;2.40;;;0.50;;
13349;SDS011;6744;53.190;6.576;2022-07-23T07:39:32;1.37;;;0.70;;
13349;SDS011;6744;53.190;6.576;2022-07-23T07:41:58;1.47;;;0.50;;
13349;SDS011;6744;53.190;6.576;2022-07-23T07:44:23;0.67;;;0.40;;
13349;SDS011;6744;53.190;6.576;2022-07-23T07:46:48;0.67;;;0.50;;
13349;SDS011;6744;53.190;6.576;2022-07-23T07:49:13;0.97;;;0.40;;
13349;SDS011;6744;53.190;6.576;2022-07-23T07:51:39;0.97;;;0.40;;
13349;SDS011;6744;53.190;6.576;2022-07-23T07:54:04;0.53;;;0.33;;
13349;SDS011;6744;53.190;6.576;2022-07-23T07:56:30;1.03;;;0.50;;
13349;SDS011;6744;53.190;6.576;2022-07-23T07:58:55;1.33;;;0.40;;
13349;SDS011;6744;53.190;6.576;2022-07-23T08:01:20;1.20;;;0.53;;
13349;SDS011;6744;53.190;6.576;2022-07-23T08:03:46;1.27;;;0.50;;
13349;SDS011;6744;53.190;6.576;2022-07-23T08:06:11;1.07;;;0.50;;
13349;SDS011;6744;53.190;6.576;2022-07-23T08:08:37;0.87;;;0.40;;
13349;SDS011;6744;53.190;6.576;2022-07-23T08:11:02;0.63;;;0.40;;
13349;SDS011;6744;53.190;6.576;2022-07-23T08:13:27;1.43;;;0.50;;
13349;SDS011;6744;53.190;6.576;2022-07-23T08:15:52;1.23;;;0.57;;
13349;SDS011;6744;53.190;6.576;2022-07-23T08:18:18;0.50;;;0.47;;
13349;SDS011;6744;53.190;6.576;2022-07-23T08:20:44;1.97;;;0.50;;
13349;SDS011;6744;53.190;6.576;2022-07-23T08:23:09;2.60;;;0.50;;
13349;SDS011;6744;53.190;6.576;2022-07-23T08:25:36;1.40;;;0.60;;
13349;SDS011;6744;53.190;6.576;2022-07-23T08:28:04;1.50;;;0.60;;
13349;SDS011;6744;53.190;6.576;2022-07-23T08:30:31;1.43;;;0.50;;
13349;SDS011;6744;53.190;6.576;2022-07-23T08:32:58;0.87;;;0.50;;
13349;SDS011;6744;53.190;6.576;2022-07-23T08:35:28;1.73;;;0.53;;
13349;SDS011;6744;53.190;6.576;2022-07-23T08:37:58;1.03;;;0.50;;
13349;SDS011;6744;53.190;6.576;2022-07-23T08:40:25;0.80;;;0.30;;
13349;SDS011;6744;53.190;6.576;2022-07-23T08:42:52;0.70;;;0.37;;
13349;SDS011;6744;53.190;6.576;2022-07-23T08:45:18;0.70;;;0.40;;
13349;SDS011;6744;53.190;6.576;2022-07-23T08:47:49;1.30;;;0.50;;
13349;SDS011;6744;53.190;6.576;2022-07-23T08:50:18;0.63;;;0.40;;
13349;SDS011;6744;53.190;6.576;2022-07-23T08:52:44;1.90;;;0.67;;
13349;SDS011;6744;53.190;6.576;2022-07-23T08:55:10;0.97;;;0.40;;
13349;SDS011;6744;53.190;6.576;2022-07-23T08:57:36;1.63;;;0.50;;
13349;SDS011;6744;53.190;6.576;2022-07-23T09:00:01;0.60;;;0.60;;
13349;SDS011;6744;53.190;6.576;2022-07-23T09:02:27;0.80;;;0.47;;
13349;SDS011;6744;53.190;6.576;2022-07-23T09:04:53;1.47;;;0.60;;
13349;SDS011;6744;53.190;6.576;2022-07-23T09:07:18;0.93;;;0.60;;
13349;SDS011;6744;53.190;6.576;2022-07-23T09:09:43;1.10;;;0.50;;
13349;SDS011;6744;53.190;6.576;2022-07-23T09:12:09;2.33;;;0.70;;
13349;SDS011;6744;53.190;6.576;2022-07-23T09:14:45;1.93;;;0.70;;
13349;SDS011;6744;53.190;6.576;2022-07-23T09:17:15;0.80;;;0.40;;
13349;SDS011;6744;53.190;6.576;2022-07-23T09:19:42;0.50;;;0.40;;
13349;SDS011;6744;53.190;6.576;2022-07-23T09:30:11;1.37;;;0.80;;
13349;SDS011;6744;53.190;6.576;2022-07-23T09:32:37;0.97;;;0.60;;
13349;SDS011;6744;53.190;6.576;2022-07-23T09:35:04;1.43;;;0.60;;
13349;SDS011;6744;53.190;6.576;2022-07-23T09:37:29;1.00;;;0.60;;
13349;SDS011;6744;53.190;6.576;2022-07-23T09:40:02;1.03;;;0.50;;
13349;SDS011;6744;53.190;6.576;2022-07-23T09:42:32;1.03;;;0.50;;
13349;SDS011;6744;53.190;6.576;2022-07-23T09:44:58;1.93;;;0.60;;
13349;SDS011;6744;53.190;6.576;2022-07-23T09:47:24;1.30;;;0.70;;
13349;SDS011;6744;53.190;6.576;2022-07-23T09:50:01;1.30;;;0.70;;
13349;SDS011;6744;53.190;6.576;2022-07-23T09:52:32;1.90;;;0.77;;
13349;SDS011;6744;53.190;6.576;2022-07-23T09:54:59;1.53;;;0.67;;
13349;SDS011;6744;53.190;6.576;2022-07-23T09:57:25;2.07;;;0.67;;
13349;SDS011;6744;53.190;6.576;2022-07-23T09:59:51;1.23;;;0.50;;
13349;SDS011;6744;53.190;6.576;2022-07-23T10:02:17;2.27;;;0.80;;
13349;SDS011;6744;53.190;6.576;2022-07-23T10:04:43;2.27;;;0.80;;
13349;SDS011;6744;53.190;6.576;2022-07-23T10:07:09;1.50;;;0.70;;
13349;SDS011;6744;53.190;6.576;2022-07-23T10:09:41;1.80;;;0.93;;
13349;SDS011;6744;53.190;6.576;2022-07-23T10:12:11;0.80;;;0.60;;
13349;SDS011;6744;53.190;6.576;2022-07-23T10:14:47;1.03;;;0.70;;
13349;SDS011;6744;53.190;6.576;2022-07-23T10:17:13;1.23;;;0.53;;
13349;SDS011;6744;53.190;6.576;2022-07-23T10:19:38;1.40;;;0.80;;
13349;SDS011;6744;53.190;6.576;2022-07-23T10:22:23;2.80;;;0.80;;
13349;SDS011;6744;53.190;6.576;2022-07-23T10:36:18;1.53;;;0.77;;
13349;SDS011;6744;53.190;6.576;2022-07-23T10:38:52;1.90;;;0.80;;
13349;SDS011;6744;53.190;6.576;2022-07-23T10:41:30;1.80;;;0.70;;
13349;SDS011;6744;53.190;6.576;2022-07-23T10:46:53;0.87;;;0.70;;
13349;SDS011;6744;53.190;6.576;2022-07-23T10:49:33;3.20;;;0.73;;
13349;SDS011;6744;53.190;6.576;2022-07-23T10:54:43;0.80;;;0.50;;
13349;SDS011;6744;53.190;6.576;2022-07-23T10:57:09;2.13;;;0.70;;
13349;SDS011;6744;53.190;6.576;2022-07-23T11:02:42;1.10;;;0.57;;
13349;SDS011;6744;53.190;6.576;2022-07-23T11:05:11;3.63;;;0.80;;
13349;SDS011;6744;53.190;6.576;2022-07-23T11:24:00;1.37;;;0.80;;
13349;SDS011;6744;53.190;6.576;2022-07-23T11:32:01;2.07;;;0.87;;
13349;SDS011;6744;53.190;6.576;2022-07-23T11:34:43;0.97;;;0.80;;
13349;SDS011;6744;53.190;6.576;2022-07-23T11:37:27;1.73;;;0.87;;
13349;SDS011;6744;53.190;6.576;2022-07-23T11:40:01;3.00;;;0.93;;
13349;SDS011;6744;53.190;6.576;2022-07-23T11:42:29;2.27;;;0.87;;
13349;SDS011;6744;53.190;6.576;2022-07-23T11:44:54;2.60;;;0.90;;
13349;SDS011;6744;53.190;6.576;2022-07-23T11:47:23;2.20;;;0.90;;
13349;SDS011;6744;53.190;6.576;2022-07-23T11:49:52;1.83;;;1.10;;
13349;SDS011;6744;53.190;6.576;2022-07-23T11:52:21;2.30;;;0.87;;
13349;SDS011;6744;53.190;6.576;2022-07-23T11:54:54;2.93;;;1.03;;
13349;SDS011;6744;53.190;6.576;2022-07-23T11:57:40;2.77;;;1.03;;
13349;SDS011;6744;53.190;6.576;2022-07-23T12:00:07;1.57;;;0.97;;
13349;SDS011;6744;53.190;6.576;2022-07-23T12:02:36;1.90;;;1.17;;
13349;SDS011;6744;53.190;6.576;2022-07-23T12:05:03;2.90;;;1.00;;
13349;SDS011;6744;53.190;6.576;2022-07-23T12:07:38;1.00;;;0.90;;
13349;SDS011;6744;53.190;6.576;2022-07-23T12:12:40;1.67;;;1.10;;
13349;SDS011;6744;53.190;6.576;2022-07-23T12:15:17;1.77;;;0.90;;
13349;SDS011;6744;53.190;6.576;2022-07-23T12:17:44;2.60;;;1.17;;
13349;SDS011;6744;53.190;6.576;2022-07-23T12:20:15;2.20;;;1.10;;
13349;SDS011;6744;53.190;6.576;2022-07-23T12:22:47;2.63;;;1.10;;
13349;SDS011;6744;53.190;6.576;2022-07-23T12:25:15;1.17;;;0.83;;
13349;SDS011;6744;53.190;6.576;2022-07-23T12:27:42;2.30;;;1.10;;
13349;SDS011;6744;53.190;6.576;2022-07-23T12:32:48;1.30;;;0.90;;
13349;SDS011;6744;53.190;6.576;2022-07-23T12:35:16;1.37;;;0.83;;
13349;SDS011;6744;53.190;6.576;2022-07-23T12:37:42;1.23;;;1.00;;
13349;SDS011;6744;53.190;6.576;2022-07-23T12:40:25;2.00;;;0.90;;
13349;SDS011;6744;53.190;6.576;2022-07-23T12:43:05;1.80;;;1.00;;
13349;SDS011;6744;53.190;6.576;2022-07-23T12:45:42;1.07;;;0.80;;
13349;SDS011;6744;53.190;6.576;2022-07-23T12:50:50;1.60;;;0.90;;
13349;SDS011;6744;53.190;6.576;2022-07-23T12:53:29;1.17;;;0.80;;
13349;SDS011;6744;53.190;6.576;2022-07-23T12:56:06;1.27;;;1.00;;
13349;SDS011;6744;53.190;6.576;2022-07-23T12:58:47;1.13;;;0.80;;
13349;SDS011;6744;53.190;6.576;2022-07-23T13:06:55;2.87;;;0.90;;
13349;SDS011;6744;53.190;6.576;2022-07-23T13:09:26;1.87;;;1.10;;
13349;SDS011;6744;53.190;6.576;2022-07-23T13:11:53;1.83;;;1.10;;
13349;SDS011;6744;53.190;6.576;2022-07-23T13:14:20;1.03;;;0.70;;
13349;SDS011;6744;53.190;6.576;2022-07-23T13:16:46;1.93;;;1.10;;
13349;SDS011;6744;53.190;6.576;2022-07-23T13:19:12;1.53;;;1.00;;
13349;SDS011;6744;53.190;6.576;2022-07-23T13:21:38;1.13;;;0.90;;
13349;SDS011;6744;53.190;6.576;2022-07-23T13:24:04;1.23;;;0.87;;
13349;SDS011;6744;53.190;6.576;2022-07-23T13:26:30;1.70;;;0.90;;
13349;SDS011;6744;53.190;6.576;2022-07-23T13:28:55;1.40;;;0.90;;
13349;SDS011;6744;53.190;6.576;2022-07-23T13:31:21;2.07;;;1.10;;
13349;SDS011;6744;53.190;6.576;2022-07-23T13:33:46;1.10;;;0.77;;
13349;SDS011;6744;53.190;6.576;2022-07-23T13:36:12;1.30;;;0.80;;
13349;SDS011;6744;53.190;6.576;2022-07-23T13:38:39;1.00;;;0.90;;
13349;SDS011;6744;53.190;6.576;2022-07-23T13:41:04;2.47;;;1.00;;
13349;SDS011;6744;53.190;6.576;2022-07-23T13:43:30;3.00;;;0.90;;
13349;SDS011;6744;53.190;6.576;2022-07-23T13:45:56;1.93;;;0.90;;
13349;SDS011;6744;53.190;6.576;2022-07-23T13:48:21;1.33;;;1.00;;
13349;SDS011;6744;53.190;6.576;2022-07-23T13:50:47;1.87;;;1.07;;
13349;SDS011;6744;53.190;6.576;2022-07-23T13:53:15;0.83;;;0.83;;
13349;SDS011;6744;53.190;6.576;2022-07-23T13:55:45;2.70;;;1.07;;
13349;SDS011;6744;53.190;6.576;2022-07-23T13:58:11;1.23;;;0.70;;
13349;SDS011;6744;53.190;6.576;2022-07-23T14:00:37;2.07;;;0.90;;
13349;SDS011;6744;53.190;6.576;2022-07-23T14:03:04;1.33;;;0.70;;
13349;SDS011;6744;53.190;6.576;2022-07-23T14:05:30;2.27;;;1.03;;
13349;SDS011;6744;53.190;6.576;2022-07-23T14:07:56;1.80;;;1.00;;
13349;SDS011;6744;53.190;6.576;2022-07-23T14:10:21;2.03;;;1.03;;
13349;SDS011;6744;53.190;6.576;2022-07-23T14:12:48;1.30;;;1.00;;
13349;SDS011;6744;53.190;6.576;2022-07-23T14:15:14;1.10;;;1.00;;
13349;SDS011;6744;53.190;6.576;2022-07-23T14:17:40;1.53;;;0.90;;
13349;SDS011;6744;53.190;6.576;2022-07-23T14:20:07;1.30;;;0.90;;
13349;SDS011;6744;53.190;6.576;2022-07-23T14:22:34;0.90;;;0.80;;
13349;SDS011;6744;53.190;6.576;2022-07-23T14:24:59;1.23;;;1.00;;
13349;SDS011;6744;53.190;6.576;2022-07-23T14:27:25;1.80;;;1.03;;
13349;SDS011;6744;53.190;6.576;2022-07-23T14:29:51;1.77;;;0.90;;
13349;SDS011;6744;53.190;6.576;2022-07-23T14:32:18;0.87;;;0.87;;
13349;SDS011;6744;53.190;6.576;2022-07-23T14:34:43;1.37;;;1.10;;
13349;SDS011;6744;53.190;6.576;2022-07-23T14:37:09;3.00;;;1.17;;
13349;SDS011;6744;53.190;6.576;2022-07-23T14:39:36;1.40;;;0.90;;
13349;SDS011;6744;53.190;6.576;2022-07-23T14:42:03;1.77;;;0.80;;
13349;SDS011;6744;53.190;6.576;2022-07-23T14:44:29;3.57;;;1.20;;
13349;SDS011;6744;53.190;6.576;2022-07-23T14:46:55;1.40;;;1.00;;
13349;SDS011;6744;53.190;6.576;2022-07-23T14:49:20;2.77;;;0.90;;
13349;SDS011;6744;53.190;6.576;2022-07-23T14:51:45;1.63;;;1.00;;
13349;SDS011;6744;53.190;6.576;2022-07-23T14:54:11;2.83;;;1.10;;
13349;SDS011;6744;53.190;6.576;2022-07-23T14:56:36;1.33;;;1.00;;
13349;SDS011;6744;53.190;6.576;2022-07-23T14:59:02;1.47;;;0.90;;
13349;SDS011;6744;53.190;6.576;2022-07-23T15:01:29;2.03;;;1.00;;
13349;SDS011;6744;53.190;6.576;2022-07-23T15:03:55;1.10;;;1.00;;
13349;SDS011;6744;53.190;6.576;2022-07-23T15:06:20;1.43;;;0.90;;
13349;SDS011;6744;53.190;6.576;2022-07-23T15:08:46;1.57;;;1.00;;
13349;SDS011;6744;53.190;6.576;2022-07-23T15:11:11;2.30;;;1.17;;
13349;SDS011;6744;53.190;6.576;2022-07-23T15:13:37;1.50;;;1.00;;
13349;SDS011;6744;53.190;6.576;2022-07-23T15:16:03;2.63;;;1.07;;
13349;SDS011;6744;53.190;6.576;2022-07-23T15:18:29;1.10;;;0.87;;
13349;SDS011;6744;53.190;6.576;2022-07-23T15:20:55;1.60;;;1.10;;
13349;SDS011;6744;53.190;6.576;2022-07-23T15:23:20;1.40;;;0.90;;
13349;SDS011;6744;53.190;6.576;2022-07-23T15:25:46;0.90;;;0.90;;
13349;SDS011;6744;53.190;6.576;2022-07-23T15:28:11;2.37;;;1.00;;
13349;SDS011;6744;53.190;6.576;2022-07-23T15:30:36;1.67;;;1.00;;
13349;SDS011;6744;53.190;6.576;2022-07-23T15:33:02;2.03;;;1.20;;
13349;SDS011;6744;53.190;6.576;2022-07-23T15:35:27;1.07;;;0.90;;
13349;SDS011;6744;53.190;6.576;2022-07-23T15:37:53;2.13;;;0.90;;
13349;SDS011;6744;53.190;6.576;2022-07-23T15:40:18;1.27;;;1.00;;
13349;SDS011;6744;53.190;6.576;2022-07-23T15:42:43;1.40;;;0.90;;
13349;SDS011;6744;53.190;6.576;2022-07-23T15:45:09;1.93;;;1.07;;
13349;SDS011;6744;53.190;6.576;2022-07-23T15:47:34;1.07;;;0.70;;
13349;SDS011;6744;53.190;6.576;2022-07-23T15:49:59;1.00;;;0.70;;
13349;SDS011;6744;53.190;6.576;2022-07-23T15:52:25;2.37;;;1.00;;
13349;SDS011;6744;53.190;6.576;2022-07-23T15:54:50;1.07;;;0.80;;
13349;SDS011;6744;53.190;6.576;2022-07-23T15:57:15;1.33;;;1.00;;
13349;SDS011;6744;53.190;6.576;2022-07-23T15:59:41;1.40;;;0.97;;